sensor_id;sensor_type;location;lat;lon;timestamp;P1;durP1;ratioP1;P2;durP2;ratioP2
8104;SDS011;4095;48.942;9.104;2023-03-01T00:01:32;16.50;;;13.47;;
8104;SDS011;4095;48.942;9.104;2023-03-01T00:03:59;17.57;;;13.20;;
8104;SDS011;4095;48.942;9.104;2023-03-01T00:06:25;15.93;;;12.23;;
8104;SDS011;4095;48.942;9.104;2023-03-01T00:08:51;16.47;;;12.93;;
8104;SDS011;4095;48.942;9.104;2023-03-01T00:11:19;18.07;;;12.93;;
8104;SDS011;4095;48.942;9.104;2023-03-01T00:13:50;17.27;;;13.43;;
8104;SDS011;4095;48.942;9.104;2023-03-01T00:16:19;18.13;;;12.43;;
8104;SDS011;4095;48.942;9.104;2023-03-01T00:18:47;17.70;;;12.83;;
8104;SDS011;4095;48.942;9.104;2023-03-01T00:21:13;17.13;;;12.97;;
8104;SDS011;4095;48.942;9.104;2023-03-01T00:23:39;15.60;;;12.73;;
8104;SDS011;4095;48.942;9.104;2023-03-01T00:26:06;18.80;;;13.97;;
8104;SDS011;4095;48.942;9.104;2023-03-01T00:28:33;16.43;;;13.00;;
8104;SDS011;4095;48.942;9.104;2023-03-01T00:31:09;18.07;;;13.50;;
8104;SDS011;4095;48.942;9.104;2023-03-01T00:33:37;18.60;;;13.50;;
8104;SDS011;4095;48.942;9.104;2023-03-01T00:36:02;18.57;;;13.37;;
8104;SDS011;4095;48.942;9.104;2023-03-01T00:38:29;18.40;;;13.77;;
8104;SDS011;4095;48.942;9.104;2023-03-01T00:40:55;18.13;;;13.50;;
8104;SDS011;4095;48.942;9.104;2023-03-01T00:43:20;19.20;;;14.13;;
8104;SDS011;4095;48.942;9.104;2023-03-01T00:45:46;17.10;;;12.97;;
8104;SDS011;4095;48.942;9.104;2023-03-01T00:48:12;16.30;;;13.00;;
8104;SDS011;4095;48.942;9.104;2023-03-01T00:50:37;18.97;;;13.63;;
8104;SDS011;4095;48.942;9.104;2023-03-01T00:53:03;17.20;;;13.17;;
8104;SDS011;4095;48.942;9.104;2023-03-01T00:55:30;17.23;;;13.53;;
8104;SDS011;4095;48.942;9.104;2023-03-01T00:57:56;17.47;;;13.03;;
8104;SDS011;4095;48.942;9.104;2023-03-01T01:00:21;18.93;;;14.03;;
8104;SDS011;4095;48.942;9.104;2023-03-01T01:02:47;18.03;;;14.20;;
8104;SDS011;4095;48.942;9.104;2023-03-01T01:05:13;16.97;;;13.77;;
8104;SDS011;4095;48.942;9.104;2023-03-01T01:07:39;17.17;;;13.63;;
8104;SDS011;4095;48.942;9.104;2023-03-01T01:10:05;21.13;;;14.37;;
8104;SDS011;4095;48.942;9.104;2023-03-01T01:12:32;17.57;;;13.13;;
8104;SDS011;4095;48.942;9.104;2023-03-01T01:14:58;18.67;;;13.67;;
8104;SDS011;4095;48.942;9.104;2023-03-01T01:17:23;17.50;;;14.20;;
8104;SDS011;4095;48.942;9.104;2023-03-01T01:19:49;18.37;;;13.87;;
8104;SDS011;4095;48.942;9.104;2023-03-01T01:22:15;17.40;;;13.53;;
8104;SDS011;4095;48.942;9.104;2023-03-01T01:24:41;18.10;;;13.40;;
8104;SDS011;4095;48.942;9.104;2023-03-01T01:27:07;17.87;;;14.03;;
8104;SDS011;4095;48.942;9.104;2023-03-01T01:29:32;19.00;;;14.53;;
8104;SDS011;4095;48.942;9.104;2023-03-01T01:31:58;21.03;;;13.90;;
8104;SDS011;4095;48.942;9.104;2023-03-01T01:34:24;17.70;;;13.17;;
8104;SDS011;4095;48.942;9.104;2023-03-01T01:36:50;22.30;;;14.23;;
8104;SDS011;4095;48.942;9.104;2023-03-01T01:39:20;19.23;;;14.43;;
8104;SDS011;4095;48.942;9.104;2023-03-01T01:41:47;16.80;;;13.00;;
8104;SDS011;4095;48.942;9.104;2023-03-01T01:46:39;17.77;;;12.97;;
8104;SDS011;4095;48.942;9.104;2023-03-01T01:51:47;18.63;;;14.07;;
8104;SDS011;4095;48.942;9.104;2023-03-01T01:54:22;20.07;;;14.93;;
8104;SDS011;4095;48.942;9.104;2023-03-01T01:56:56;16.10;;;13.40;;
8104;SDS011;4095;48.942;9.104;2023-03-01T01:59:27;18.83;;;14.00;;
8104;SDS011;4095;48.942;9.104;2023-03-01T02:01:55;18.23;;;14.03;;
8104;SDS011;4095;48.942;9.104;2023-03-01T02:04:24;18.57;;;13.10;;
8104;SDS011;4095;48.942;9.104;2023-03-01T02:07:05;16.93;;;13.37;;
8104;SDS011;4095;48.942;9.104;2023-03-01T02:09:38;19.53;;;13.57;;
8104;SDS011;4095;48.942;9.104;2023-03-01T02:12:05;17.93;;;13.87;;
8104;SDS011;4095;48.942;9.104;2023-03-01T02:14:31;18.13;;;13.63;;
8104;SDS011;4095;48.942;9.104;2023-03-01T02:16:57;17.40;;;13.50;;
8104;SDS011;4095;48.942;9.104;2023-03-01T02:22:27;18.10;;;13.87;;
8104;SDS011;4095;48.942;9.104;2023-03-01T02:30:25;16.07;;;13.13;;
8104;SDS011;4095;48.942;9.104;2023-03-01T02:32:53;19.07;;;13.87;;
8104;SDS011;4095;48.942;9.104;2023-03-01T02:35:27;18.03;;;13.13;;
8104;SDS011;4095;48.942;9.104;2023-03-01T02:37:55;18.77;;;14.07;;
8104;SDS011;4095;48.942;9.104;2023-03-01T02:40:22;17.47;;;13.23;;
8104;SDS011;4095;48.942;9.104;2023-03-01T02:42:55;20.97;;;14.77;;
8104;SDS011;4095;48.942;9.104;2023-03-01T02:45:22;18.57;;;14.30;;
8104;SDS011;4095;48.942;9.104;2023-03-01T02:47:48;20.77;;;14.50;;
8104;SDS011;4095;48.942;9.104;2023-03-01T02:55:34;19.90;;;14.33;;
8104;SDS011;4095;48.942;9.104;2023-03-01T02:57:59;19.83;;;14.80;;
8104;SDS011;4095;48.942;9.104;2023-03-01T03:00:33;17.13;;;13.70;;
8104;SDS011;4095;48.942;9.104;2023-03-01T03:03:05;20.33;;;14.27;;
8104;SDS011;4095;48.942;9.104;2023-03-01T03:05:33;17.67;;;14.07;;
8104;SDS011;4095;48.942;9.104;2023-03-01T03:07:59;18.77;;;13.80;;
8104;SDS011;4095;48.942;9.104;2023-03-01T03:12:54;19.00;;;14.27;;
8104;SDS011;4095;48.942;9.104;2023-03-01T03:15:22;18.87;;;15.10;;
8104;SDS011;4095;48.942;9.104;2023-03-01T03:17:48;19.57;;;14.40;;
8104;SDS011;4095;48.942;9.104;2023-03-01T03:20:16;19.23;;;14.70;;
8104;SDS011;4095;48.942;9.104;2023-03-01T03:22:46;18.77;;;14.53;;
8104;SDS011;4095;48.942;9.104;2023-03-01T03:25:13;18.27;;;15.10;;
8104;SDS011;4095;48.942;9.104;2023-03-01T03:27:39;21.30;;;15.47;;
8104;SDS011;4095;48.942;9.104;2023-03-01T03:30:07;18.03;;;15.13;;
8104;SDS011;4095;48.942;9.104;2023-03-01T03:32:35;21.07;;;15.27;;
8104;SDS011;4095;48.942;9.104;2023-03-01T03:35:02;18.47;;;14.57;;
8104;SDS011;4095;48.942;9.104;2023-03-01T03:37:40;20.83;;;15.30;;
8104;SDS011;4095;48.942;9.104;2023-03-01T03:40:25;20.63;;;15.17;;
8104;SDS011;4095;48.942;9.104;2023-03-01T03:42:51;16.07;;;13.80;;
8104;SDS011;4095;48.942;9.104;2023-03-01T03:45:17;17.83;;;14.40;;
8104;SDS011;4095;48.942;9.104;2023-03-01T03:47:43;19.77;;;14.23;;
8104;SDS011;4095;48.942;9.104;2023-03-01T03:50:09;18.20;;;15.10;;
8104;SDS011;4095;48.942;9.104;2023-03-01T03:52:36;19.20;;;15.10;;
8104;SDS011;4095;48.942;9.104;2023-03-01T03:55:02;21.83;;;14.87;;
8104;SDS011;4095;48.942;9.104;2023-03-01T03:57:27;17.83;;;13.80;;
8104;SDS011;4095;48.942;9.104;2023-03-01T03:59:53;21.00;;;14.70;;
8104;SDS011;4095;48.942;9.104;2023-03-01T04:02:18;20.17;;;16.00;;
8104;SDS011;4095;48.942;9.104;2023-03-01T04:04:47;22.67;;;15.53;;
8104;SDS011;4095;48.942;9.104;2023-03-01T04:07:15;20.43;;;15.03;;
8104;SDS011;4095;48.942;9.104;2023-03-01T04:09:41;18.33;;;14.13;;
8104;SDS011;4095;48.942;9.104;2023-03-01T04:12:08;22.80;;;14.77;;
8104;SDS011;4095;48.942;9.104;2023-03-01T04:14:34;20.53;;;14.50;;
8104;SDS011;4095;48.942;9.104;2023-03-01T04:16:59;20.10;;;15.60;;
8104;SDS011;4095;48.942;9.104;2023-03-01T04:19:26;21.50;;;14.87;;
8104;SDS011;4095;48.942;9.104;2023-03-01T04:21:52;19.07;;;14.83;;
8104;SDS011;4095;48.942;9.104;2023-03-01T04:24:18;19.10;;;14.27;;
8104;SDS011;4095;48.942;9.104;2023-03-01T04:26:43;20.10;;;15.87;;
8104;SDS011;4095;48.942;9.104;2023-03-01T04:29:09;21.13;;;15.23;;
8104;SDS011;4095;48.942;9.104;2023-03-01T04:31:35;18.23;;;14.93;;
8104;SDS011;4095;48.942;9.104;2023-03-01T04:34:00;17.60;;;14.30;;
8104;SDS011;4095;48.942;9.104;2023-03-01T04:36:27;19.53;;;14.57;;
8104;SDS011;4095;48.942;9.104;2023-03-01T04:38:53;20.77;;;15.03;;
8104;SDS011;4095;48.942;9.104;2023-03-01T04:41:21;20.90;;;14.97;;
8104;SDS011;4095;48.942;9.104;2023-03-01T04:43:48;20.03;;;14.67;;
8104;SDS011;4095;48.942;9.104;2023-03-01T04:46:15;21.53;;;15.93;;
8104;SDS011;4095;48.942;9.104;2023-03-01T04:48:42;17.53;;;13.87;;
8104;SDS011;4095;48.942;9.104;2023-03-01T04:51:09;21.00;;;15.20;;
8104;SDS011;4095;48.942;9.104;2023-03-01T04:53:38;24.77;;;18.80;;
8104;SDS011;4095;48.942;9.104;2023-03-01T04:56:04;24.40;;;20.13;;
8104;SDS011;4095;48.942;9.104;2023-03-01T04:58:30;22.97;;;18.63;;
8104;SDS011;4095;48.942;9.104;2023-03-01T05:00:56;22.63;;;18.07;;
8104;SDS011;4095;48.942;9.104;2023-03-01T05:03:21;23.07;;;17.20;;
8104;SDS011;4095;48.942;9.104;2023-03-01T05:05:48;21.27;;;16.50;;
8104;SDS011;4095;48.942;9.104;2023-03-01T05:08:15;21.53;;;15.97;;
8104;SDS011;4095;48.942;9.104;2023-03-01T05:10:52;20.60;;;16.27;;
8104;SDS011;4095;48.942;9.104;2023-03-01T05:13:20;22.50;;;16.07;;
8104;SDS011;4095;48.942;9.104;2023-03-01T05:15:56;24.47;;;16.27;;
8104;SDS011;4095;48.942;9.104;2023-03-01T05:18:24;19.93;;;15.90;;
8104;SDS011;4095;48.942;9.104;2023-03-01T05:20:51;21.57;;;16.53;;
8104;SDS011;4095;48.942;9.104;2023-03-01T05:23:23;22.67;;;16.67;;
8104;SDS011;4095;48.942;9.104;2023-03-01T05:25:49;23.37;;;16.50;;
8104;SDS011;4095;48.942;9.104;2023-03-01T05:28:17;20.53;;;16.10;;
8104;SDS011;4095;48.942;9.104;2023-03-01T05:30:44;21.27;;;16.07;;
8104;SDS011;4095;48.942;9.104;2023-03-01T05:33:11;22.10;;;15.97;;
8104;SDS011;4095;48.942;9.104;2023-03-01T05:35:40;21.37;;;16.67;;
8104;SDS011;4095;48.942;9.104;2023-03-01T05:38:07;23.10;;;17.27;;
8104;SDS011;4095;48.942;9.104;2023-03-01T05:40:34;21.30;;;16.60;;
8104;SDS011;4095;48.942;9.104;2023-03-01T05:43:00;21.40;;;16.60;;
8104;SDS011;4095;48.942;9.104;2023-03-01T05:45:26;22.53;;;16.93;;
8104;SDS011;4095;48.942;9.104;2023-03-01T05:47:52;24.03;;;16.53;;
8104;SDS011;4095;48.942;9.104;2023-03-01T05:50:20;21.83;;;16.67;;
8104;SDS011;4095;48.942;9.104;2023-03-01T05:52:54;23.77;;;16.90;;
8104;SDS011;4095;48.942;9.104;2023-03-01T05:55:38;20.47;;;16.47;;
8104;SDS011;4095;48.942;9.104;2023-03-01T05:58:05;22.87;;;16.67;;
8104;SDS011;4095;48.942;9.104;2023-03-01T06:00:34;25.70;;;17.23;;
8104;SDS011;4095;48.942;9.104;2023-03-01T06:02:59;25.63;;;18.43;;
8104;SDS011;4095;48.942;9.104;2023-03-01T06:05:26;22.03;;;16.57;;
8104;SDS011;4095;48.942;9.104;2023-03-01T06:07:52;21.90;;;17.33;;
8104;SDS011;4095;48.942;9.104;2023-03-01T06:10:19;25.77;;;18.80;;
8104;SDS011;4095;48.942;9.104;2023-03-01T06:12:46;27.87;;;18.50;;
8104;SDS011;4095;48.942;9.104;2023-03-01T06:15:13;26.30;;;17.73;;
8104;SDS011;4095;48.942;9.104;2023-03-01T06:17:41;28.30;;;18.67;;
8104;SDS011;4095;48.942;9.104;2023-03-01T06:20:18;25.50;;;17.37;;
8104;SDS011;4095;48.942;9.104;2023-03-01T06:22:46;24.13;;;18.93;;
8104;SDS011;4095;48.942;9.104;2023-03-01T06:25:13;24.77;;;17.23;;
8104;SDS011;4095;48.942;9.104;2023-03-01T06:27:41;27.90;;;20.80;;
8104;SDS011;4095;48.942;9.104;2023-03-01T06:30:08;29.73;;;21.70;;
8104;SDS011;4095;48.942;9.104;2023-03-01T06:32:36;29.10;;;22.53;;
8104;SDS011;4095;48.942;9.104;2023-03-01T06:35:02;25.67;;;19.37;;
8104;SDS011;4095;48.942;9.104;2023-03-01T06:37:29;24.80;;;18.83;;
8104;SDS011;4095;48.942;9.104;2023-03-01T06:39:54;25.90;;;19.17;;
8104;SDS011;4095;48.942;9.104;2023-03-01T06:42:20;24.73;;;17.53;;
8104;SDS011;4095;48.942;9.104;2023-03-01T06:44:46;26.40;;;17.60;;
8104;SDS011;4095;48.942;9.104;2023-03-01T06:47:11;25.97;;;17.97;;
8104;SDS011;4095;48.942;9.104;2023-03-01T06:49:37;24.83;;;17.90;;
8104;SDS011;4095;48.942;9.104;2023-03-01T06:52:03;23.67;;;17.67;;
8104;SDS011;4095;48.942;9.104;2023-03-01T06:54:28;21.83;;;18.30;;
8104;SDS011;4095;48.942;9.104;2023-03-01T06:56:54;22.73;;;17.40;;
8104;SDS011;4095;48.942;9.104;2023-03-01T06:59:20;24.47;;;17.93;;
8104;SDS011;4095;48.942;9.104;2023-03-01T07:01:45;22.63;;;16.97;;
8104;SDS011;4095;48.942;9.104;2023-03-01T07:04:12;27.07;;;17.90;;
8104;SDS011;4095;48.942;9.104;2023-03-01T07:06:38;25.57;;;18.70;;
8104;SDS011;4095;48.942;9.104;2023-03-01T07:09:03;24.00;;;18.03;;
8104;SDS011;4095;48.942;9.104;2023-03-01T07:11:29;23.23;;;17.57;;
8104;SDS011;4095;48.942;9.104;2023-03-01T07:13:55;23.00;;;17.73;;
8104;SDS011;4095;48.942;9.104;2023-03-01T07:16:20;25.07;;;18.27;;
8104;SDS011;4095;48.942;9.104;2023-03-01T07:18:46;21.40;;;16.87;;
8104;SDS011;4095;48.942;9.104;2023-03-01T07:21:12;26.03;;;18.47;;
8104;SDS011;4095;48.942;9.104;2023-03-01T07:23:39;24.00;;;17.80;;
8104;SDS011;4095;48.942;9.104;2023-03-01T07:26:05;23.90;;;17.97;;
8104;SDS011;4095;48.942;9.104;2023-03-01T07:28:31;25.30;;;18.20;;
8104;SDS011;4095;48.942;9.104;2023-03-01T07:31:01;24.87;;;18.60;;
8104;SDS011;4095;48.942;9.104;2023-03-01T07:33:27;24.43;;;18.33;;
8104;SDS011;4095;48.942;9.104;2023-03-01T07:35:57;23.30;;;17.73;;
8104;SDS011;4095;48.942;9.104;2023-03-01T07:38:24;25.17;;;18.40;;
8104;SDS011;4095;48.942;9.104;2023-03-01T07:40:49;24.87;;;18.50;;
8104;SDS011;4095;48.942;9.104;2023-03-01T07:43:15;25.00;;;18.47;;
8104;SDS011;4095;48.942;9.104;2023-03-01T07:45:40;23.23;;;18.30;;
8104;SDS011;4095;48.942;9.104;2023-03-01T07:48:06;24.77;;;18.10;;
8104;SDS011;4095;48.942;9.104;2023-03-01T07:50:31;23.97;;;18.57;;
8104;SDS011;4095;48.942;9.104;2023-03-01T07:52:57;23.33;;;18.47;;
8104;SDS011;4095;48.942;9.104;2023-03-01T07:55:23;22.03;;;17.53;;
8104;SDS011;4095;48.942;9.104;2023-03-01T07:57:48;22.27;;;17.40;;
8104;SDS011;4095;48.942;9.104;2023-03-01T08:00:14;23.43;;;18.33;;
8104;SDS011;4095;48.942;9.104;2023-03-01T08:02:40;22.43;;;17.67;;
8104;SDS011;4095;48.942;9.104;2023-03-01T08:05:07;24.27;;;18.50;;
8104;SDS011;4095;48.942;9.104;2023-03-01T08:07:33;25.60;;;18.07;;
8104;SDS011;4095;48.942;9.104;2023-03-01T08:09:59;22.60;;;18.17;;
8104;SDS011;4095;48.942;9.104;2023-03-01T08:12:25;23.83;;;17.53;;
8104;SDS011;4095;48.942;9.104;2023-03-01T08:14:52;23.50;;;17.70;;
8104;SDS011;4095;48.942;9.104;2023-03-01T08:17:18;24.63;;;18.00;;
8104;SDS011;4095;48.942;9.104;2023-03-01T08:19:44;23.13;;;17.87;;
8104;SDS011;4095;48.942;9.104;2023-03-01T08:22:10;23.30;;;17.40;;
8104;SDS011;4095;48.942;9.104;2023-03-01T08:24:35;23.47;;;18.63;;
8104;SDS011;4095;48.942;9.104;2023-03-01T08:27:01;23.87;;;18.33;;
8104;SDS011;4095;48.942;9.104;2023-03-01T08:29:27;22.50;;;17.83;;
8104;SDS011;4095;48.942;9.104;2023-03-01T08:31:55;23.20;;;17.50;;
8104;SDS011;4095;48.942;9.104;2023-03-01T08:34:21;23.47;;;17.97;;
8104;SDS011;4095;48.942;9.104;2023-03-01T08:36:47;22.80;;;17.80;;
8104;SDS011;4095;48.942;9.104;2023-03-01T08:39:14;20.93;;;17.37;;
8104;SDS011;4095;48.942;9.104;2023-03-01T08:41:40;23.77;;;18.07;;
8104;SDS011;4095;48.942;9.104;2023-03-01T08:44:07;21.37;;;17.60;;
8104;SDS011;4095;48.942;9.104;2023-03-01T08:46:33;23.37;;;18.40;;
8104;SDS011;4095;48.942;9.104;2023-03-01T08:49:03;23.70;;;17.77;;
8104;SDS011;4095;48.942;9.104;2023-03-01T08:51:30;21.63;;;17.17;;
8104;SDS011;4095;48.942;9.104;2023-03-01T08:53:57;20.27;;;16.90;;
8104;SDS011;4095;48.942;9.104;2023-03-01T08:56:23;21.60;;;17.83;;
8104;SDS011;4095;48.942;9.104;2023-03-01T08:58:48;21.10;;;16.57;;
8104;SDS011;4095;48.942;9.104;2023-03-01T09:01:15;21.40;;;16.90;;
8104;SDS011;4095;48.942;9.104;2023-03-01T09:03:43;24.03;;;16.97;;
8104;SDS011;4095;48.942;9.104;2023-03-01T09:06:10;22.33;;;17.50;;
8104;SDS011;4095;48.942;9.104;2023-03-01T09:08:37;20.20;;;16.90;;
8104;SDS011;4095;48.942;9.104;2023-03-01T09:11:05;22.10;;;17.20;;
8104;SDS011;4095;48.942;9.104;2023-03-01T09:13:32;21.80;;;17.20;;
8104;SDS011;4095;48.942;9.104;2023-03-01T09:15:59;22.33;;;17.97;;
8104;SDS011;4095;48.942;9.104;2023-03-01T09:18:26;23.17;;;18.00;;
8104;SDS011;4095;48.942;9.104;2023-03-01T09:20:52;21.17;;;17.50;;
8104;SDS011;4095;48.942;9.104;2023-03-01T09:23:20;19.77;;;16.90;;
8104;SDS011;4095;48.942;9.104;2023-03-01T09:25:46;19.57;;;16.40;;
8104;SDS011;4095;48.942;9.104;2023-03-01T09:28:11;22.27;;;16.97;;
8104;SDS011;4095;48.942;9.104;2023-03-01T09:30:37;20.43;;;18.27;;
8104;SDS011;4095;48.942;9.104;2023-03-01T09:33:02;19.00;;;16.63;;
8104;SDS011;4095;48.942;9.104;2023-03-01T09:35:28;21.20;;;16.83;;
8104;SDS011;4095;48.942;9.104;2023-03-01T09:37:54;19.47;;;16.60;;
8104;SDS011;4095;48.942;9.104;2023-03-01T09:40:20;19.53;;;16.27;;
8104;SDS011;4095;48.942;9.104;2023-03-01T09:42:52;26.17;;;16.57;;
8104;SDS011;4095;48.942;9.104;2023-03-01T09:45:34;19.17;;;16.77;;
8104;SDS011;4095;48.942;9.104;2023-03-01T09:48:03;20.73;;;16.07;;
8104;SDS011;4095;48.942;9.104;2023-03-01T09:50:38;19.17;;;16.63;;
8104;SDS011;4095;48.942;9.104;2023-03-01T09:53:07;18.87;;;16.10;;
8104;SDS011;4095;48.942;9.104;2023-03-01T09:55:45;18.00;;;15.23;;
8104;SDS011;4095;48.942;9.104;2023-03-01T10:07:28;19.33;;;15.83;;
8104;SDS011;4095;48.942;9.104;2023-03-01T10:10:05;19.27;;;15.63;;
8104;SDS011;4095;48.942;9.104;2023-03-01T10:12:37;18.70;;;16.10;;
8104;SDS011;4095;48.942;9.104;2023-03-01T10:15:13;18.60;;;15.87;;
8104;SDS011;4095;48.942;9.104;2023-03-01T10:18:04;17.70;;;15.13;;
8104;SDS011;4095;48.942;9.104;2023-03-01T10:20:46;17.83;;;15.67;;
8104;SDS011;4095;48.942;9.104;2023-03-01T10:23:17;20.23;;;16.07;;
8104;SDS011;4095;48.942;9.104;2023-03-01T10:25:57;18.67;;;16.30;;
8104;SDS011;4095;48.942;9.104;2023-03-01T10:28:31;18.30;;;15.70;;
8104;SDS011;4095;48.942;9.104;2023-03-01T10:31:01;18.13;;;15.53;;
8104;SDS011;4095;48.942;9.104;2023-03-01T10:33:29;17.37;;;15.03;;
8104;SDS011;4095;48.942;9.104;2023-03-01T10:35:57;19.23;;;15.53;;
8104;SDS011;4095;48.942;9.104;2023-03-01T10:38:22;18.97;;;15.27;;
8104;SDS011;4095;48.942;9.104;2023-03-01T10:41:10;18.73;;;16.63;;
8104;SDS011;4095;48.942;9.104;2023-03-01T10:43:51;17.27;;;15.30;;
8104;SDS011;4095;48.942;9.104;2023-03-01T10:51:39;17.47;;;15.13;;
8104;SDS011;4095;48.942;9.104;2023-03-01T10:54:15;16.13;;;14.43;;
8104;SDS011;4095;48.942;9.104;2023-03-01T10:57:00;16.77;;;15.03;;
8104;SDS011;4095;48.942;9.104;2023-03-01T10:59:31;16.77;;;14.40;;
8104;SDS011;4095;48.942;9.104;2023-03-01T11:02:24;15.53;;;14.00;;
8104;SDS011;4095;48.942;9.104;2023-03-01T11:04:58;15.80;;;14.20;;
8104;SDS011;4095;48.942;9.104;2023-03-01T11:07:50;15.70;;;14.07;;
8104;SDS011;4095;48.942;9.104;2023-03-01T11:10:21;14.03;;;12.70;;
8104;SDS011;4095;48.942;9.104;2023-03-01T11:12:52;14.73;;;13.33;;
8104;SDS011;4095;48.942;9.104;2023-03-01T11:15:20;15.90;;;13.90;;
8104;SDS011;4095;48.942;9.104;2023-03-01T11:17:51;14.30;;;12.90;;
8104;SDS011;4095;48.942;9.104;2023-03-01T11:20:36;14.77;;;12.80;;
8104;SDS011;4095;48.942;9.104;2023-03-01T11:23:13;14.85;;;13.35;;
8104;SDS011;4095;48.942;9.104;2023-03-01T11:25:42;14.35;;;12.90;;
8104;SDS011;4095;48.942;9.104;2023-03-01T11:28:12;14.27;;;12.82;;
8104;SDS011;4095;48.942;9.104;2023-03-01T11:30:45;13.90;;;12.60;;
8104;SDS011;4095;48.942;9.104;2023-03-01T11:36:01;14.20;;;12.70;;
8104;SDS011;4095;48.942;9.104;2023-03-01T11:38:32;14.32;;;12.93;;
8104;SDS011;4095;48.942;9.104;2023-03-01T11:43:35;14.13;;;12.82;;
8104;SDS011;4095;48.942;9.104;2023-03-01T12:20:26;14.27;;;12.82;;
8104;SDS011;4095;48.942;9.104;2023-03-01T12:26:41;15.00;;;13.50;;
8104;SDS011;4095;48.942;9.104;2023-03-01T12:29:24;14.70;;;13.30;;
8104;SDS011;4095;48.942;9.104;2023-03-01T12:34:35;14.98;;;13.68;;
8104;SDS011;4095;48.942;9.104;2023-03-01T12:50:41;15.02;;;13.50;;
8104;SDS011;4095;48.942;9.104;2023-03-01T12:53:22;15.20;;;13.73;;
8104;SDS011;4095;48.942;9.104;2023-03-01T12:55:54;16.27;;;14.10;;
8104;SDS011;4095;48.942;9.104;2023-03-01T13:01:00;15.77;;;14.25;;
8104;SDS011;4095;48.942;9.104;2023-03-01T13:09:00;14.80;;;13.27;;
8104;SDS011;4095;48.942;9.104;2023-03-01T13:11:33;17.02;;;15.23;;
8104;SDS011;4095;48.942;9.104;2023-03-01T13:14:34;15.23;;;13.63;;
8104;SDS011;4095;48.942;9.104;2023-03-01T13:17:00;16.17;;;14.52;;
8104;SDS011;4095;48.942;9.104;2023-03-01T13:19:27;16.33;;;14.63;;
8104;SDS011;4095;48.942;9.104;2023-03-01T13:21:57;16.33;;;14.63;;
8104;SDS011;4095;48.942;9.104;2023-03-01T13:37:43;17.90;;;16.00;;
8104;SDS011;4095;48.942;9.104;2023-03-01T13:42:51;18.27;;;16.23;;
8104;SDS011;4095;48.942;9.104;2023-03-01T13:45:24;15.70;;;14.10;;
8104;SDS011;4095;48.942;9.104;2023-03-01T13:48:08;16.83;;;15.10;;
8104;SDS011;4095;48.942;9.104;2023-03-01T13:50:37;16.50;;;14.80;;
8104;SDS011;4095;48.942;9.104;2023-03-01T13:53:10;19.33;;;15.30;;
8104;SDS011;4095;48.942;9.104;2023-03-01T13:55:43;17.50;;;15.03;;
8104;SDS011;4095;48.942;9.104;2023-03-01T13:58:30;19.60;;;14.63;;
8104;SDS011;4095;48.942;9.104;2023-03-01T14:03:31;19.00;;;15.30;;
8104;SDS011;4095;48.942;9.104;2023-03-01T14:06:20;19.27;;;15.77;;
8104;SDS011;4095;48.942;9.104;2023-03-01T14:08:52;16.70;;;14.70;;
8104;SDS011;4095;48.942;9.104;2023-03-01T14:11:35;17.20;;;15.10;;
8104;SDS011;4095;48.942;9.104;2023-03-01T14:16:56;18.40;;;15.27;;
8104;SDS011;4095;48.942;9.104;2023-03-01T14:19:24;17.37;;;15.47;;
8104;SDS011;4095;48.942;9.104;2023-03-01T14:22:02;16.83;;;14.87;;
8104;SDS011;4095;48.942;9.104;2023-03-01T14:24:30;18.97;;;15.30;;
8104;SDS011;4095;48.942;9.104;2023-03-01T14:27:02;17.03;;;15.23;;
8104;SDS011;4095;48.942;9.104;2023-03-01T14:29:35;18.57;;;15.27;;
8104;SDS011;4095;48.942;9.104;2023-03-01T14:34:58;17.17;;;15.37;;
8104;SDS011;4095;48.942;9.104;2023-03-01T14:39:55;16.10;;;14.40;;
8104;SDS011;4095;48.942;9.104;2023-03-01T14:42:23;20.57;;;15.87;;
8104;SDS011;4095;48.942;9.104;2023-03-01T14:44:53;17.77;;;15.47;;
8104;SDS011;4095;48.942;9.104;2023-03-01T14:49:49;17.87;;;15.97;;
8104;SDS011;4095;48.942;9.104;2023-03-01T14:52:21;18.80;;;16.20;;
8104;SDS011;4095;48.942;9.104;2023-03-01T14:54:51;21.77;;;15.17;;
8104;SDS011;4095;48.942;9.104;2023-03-01T14:57:20;17.50;;;15.70;;
8104;SDS011;4095;48.942;9.104;2023-03-01T14:59:48;18.33;;;14.83;;
8104;SDS011;4095;48.942;9.104;2023-03-01T15:02:18;16.47;;;14.70;;
8104;SDS011;4095;48.942;9.104;2023-03-01T15:04:51;17.87;;;14.57;;
8104;SDS011;4095;48.942;9.104;2023-03-01T15:07:19;19.50;;;15.73;;
8104;SDS011;4095;48.942;9.104;2023-03-01T15:09:45;17.93;;;15.13;;
8104;SDS011;4095;48.942;9.104;2023-03-01T15:14:52;20.33;;;16.00;;
8104;SDS011;4095;48.942;9.104;2023-03-01T15:17:34;17.43;;;15.40;;
8104;SDS011;4095;48.942;9.104;2023-03-01T15:20:04;19.47;;;14.97;;
8104;SDS011;4095;48.942;9.104;2023-03-01T15:22:42;16.90;;;15.10;;
8104;SDS011;4095;48.942;9.104;2023-03-01T15:25:16;16.93;;;15.10;;
8104;SDS011;4095;48.942;9.104;2023-03-01T15:27:48;15.97;;;14.33;;
8104;SDS011;4095;48.942;9.104;2023-03-01T15:30:18;16.70;;;14.50;;
8104;SDS011;4095;48.942;9.104;2023-03-01T15:32:48;18.00;;;15.43;;
8104;SDS011;4095;48.942;9.104;2023-03-01T15:35:33;20.93;;;14.50;;
8104;SDS011;4095;48.942;9.104;2023-03-01T15:40:54;16.77;;;14.53;;
8104;SDS011;4095;48.942;9.104;2023-03-01T15:43:43;19.07;;;15.00;;
8104;SDS011;4095;48.942;9.104;2023-03-01T15:48:47;17.63;;;15.30;;
8104;SDS011;4095;48.942;9.104;2023-03-01T15:51:17;16.83;;;15.10;;
8104;SDS011;4095;48.942;9.104;2023-03-01T15:53:48;16.80;;;14.63;;
8104;SDS011;4095;48.942;9.104;2023-03-01T15:56:16;19.00;;;16.30;;
8104;SDS011;4095;48.942;9.104;2023-03-01T15:58:41;19.93;;;15.07;;
8104;SDS011;4095;48.942;9.104;2023-03-01T16:01:10;18.17;;;14.93;;
8104;SDS011;4095;48.942;9.104;2023-03-01T16:03:37;16.57;;;14.07;;
8104;SDS011;4095;48.942;9.104;2023-03-01T16:06:03;17.70;;;14.67;;
8104;SDS011;4095;48.942;9.104;2023-03-01T16:08:29;16.37;;;13.70;;
8104;SDS011;4095;48.942;9.104;2023-03-01T16:10:54;15.60;;;13.90;;
8104;SDS011;4095;48.942;9.104;2023-03-01T16:13:20;15.57;;;13.90;;
8104;SDS011;4095;48.942;9.104;2023-03-01T16:15:45;16.93;;;13.90;;
8104;SDS011;4095;48.942;9.104;2023-03-01T16:18:11;16.33;;;14.60;;
8104;SDS011;4095;48.942;9.104;2023-03-01T16:20:37;17.43;;;14.57;;
8104;SDS011;4095;48.942;9.104;2023-03-01T16:23:04;16.50;;;14.60;;
8104;SDS011;4095;48.942;9.104;2023-03-01T16:25:32;18.07;;;14.63;;
8104;SDS011;4095;48.942;9.104;2023-03-01T16:27:58;18.53;;;14.43;;
8104;SDS011;4095;48.942;9.104;2023-03-01T16:30:26;18.63;;;14.70;;
8104;SDS011;4095;48.942;9.104;2023-03-01T16:32:52;20.63;;;15.47;;
8104;SDS011;4095;48.942;9.104;2023-03-01T16:35:18;16.90;;;14.93;;
8104;SDS011;4095;48.942;9.104;2023-03-01T16:37:45;17.17;;;14.80;;
8104;SDS011;4095;48.942;9.104;2023-03-01T16:40:32;16.67;;;14.70;;
8104;SDS011;4095;48.942;9.104;2023-03-01T16:42:57;18.33;;;15.20;;
8104;SDS011;4095;48.942;9.104;2023-03-01T16:45:26;18.70;;;15.13;;
8104;SDS011;4095;48.942;9.104;2023-03-01T16:47:57;17.50;;;14.53;;
8104;SDS011;4095;48.942;9.104;2023-03-01T16:50:23;20.77;;;14.80;;
8104;SDS011;4095;48.942;9.104;2023-03-01T16:52:48;17.50;;;15.00;;
8104;SDS011;4095;48.942;9.104;2023-03-01T16:55:14;16.70;;;14.57;;
8104;SDS011;4095;48.942;9.104;2023-03-01T16:57:40;18.47;;;14.77;;
8104;SDS011;4095;48.942;9.104;2023-03-01T17:00:06;15.90;;;14.20;;
8104;SDS011;4095;48.942;9.104;2023-03-01T17:02:36;18.03;;;15.03;;
8104;SDS011;4095;48.942;9.104;2023-03-01T17:05:02;19.00;;;15.20;;
8104;SDS011;4095;48.942;9.104;2023-03-01T17:07:29;17.50;;;14.43;;
8104;SDS011;4095;48.942;9.104;2023-03-01T17:09:58;16.03;;;14.33;;
8104;SDS011;4095;48.942;9.104;2023-03-01T17:12:24;19.23;;;14.43;;
8104;SDS011;4095;48.942;9.104;2023-03-01T17:14:50;19.53;;;15.23;;
8104;SDS011;4095;48.942;9.104;2023-03-01T17:17:15;19.40;;;15.23;;
8104;SDS011;4095;48.942;9.104;2023-03-01T17:19:41;16.90;;;13.93;;